createdAt,value
2018-06-09T00:01:28.657Z,58.30
2018-06-09T00:03:55.614Z,57.80
2018-06-09T00:06:22.951Z,58.60
2018-06-09T00:08:50.850Z,58.40
2018-06-09T00:11:17.794Z,58.40
2018-06-09T00:13:44.729Z,58.20
2018-06-09T00:16:11.773Z,57.90
2018-06-09T00:18:38.714Z,58.30
2018-06-09T00:21:05.630Z,58.00
2018-06-09T00:23:32.795Z,58.70
2018-06-09T00:25:59.709Z,58.60
2018-06-09T00:28:26.798Z,58.70
2018-06-09T00:30:53.778Z,59.20
2018-06-09T00:33:20.738Z,59.10
2018-06-09T00:35:48.518Z,58.60
2018-06-09T00:38:16.214Z,59.70
2018-06-09T00:40:44.058Z,59.50
2018-06-09T00:43:11.523Z,59.30
2018-06-09T00:45:38.966Z,60.10
2018-06-09T00:48:06.391Z,60.80
2018-06-09T00:50:34.155Z,61.10
2018-06-09T00:53:01.578Z,61.00
2018-06-09T00:55:29.038Z,61.50
2018-06-09T00:57:56.486Z,62.00
2018-06-09T01:00:23.938Z,62.60
2018-06-09T01:02:51.394Z,63.20
2018-06-09T01:05:18.837Z,63.40
2018-06-09T01:07:46.286Z,63.80
2018-06-09T01:10:13.731Z,63.70
2018-06-09T01:12:42.790Z,63.70
2018-06-09T01:15:10.588Z,64.20
2018-06-09T01:20:07.586Z,63.60
2018-06-09T01:22:35.006Z,63.00
2018-06-09T01:25:02.482Z,63.80
2018-06-09T01:27:29.949Z,63.90
2018-06-09T01:29:57.457Z,64.20
2018-06-09T01:32:24.886Z,64.10
2018-06-09T01:34:52.306Z,64.10
2018-06-09T01:37:19.782Z,63.60
2018-06-09T01:39:47.222Z,63.70
2018-06-09T01:42:14.994Z,64.10
2018-06-09T01:44:42.705Z,64.10
2018-06-09T01:47:10.126Z,63.50
2018-06-09T01:49:37.611Z,64.30
2018-06-09T01:52:05.050Z,64.90
2018-06-09T01:54:32.527Z,64.70
2018-06-09T01:56:59.954Z,65.50
2018-06-09T01:59:27.454Z,65.70
2018-06-09T02:01:54.910Z,66.40
2018-06-09T02:04:22.406Z,66.20
2018-06-09T02:09:17.348Z,67.50
2018-06-09T02:11:44.848Z,67.10
2018-06-09T02:14:12.339Z,67.90
2018-06-09T02:16:39.768Z,68.10
2018-06-09T02:19:07.238Z,68.40
2018-06-09T02:21:34.683Z,68.70
2018-06-09T02:24:02.153Z,69.40
2018-06-09T02:26:29.578Z,69.50
2018-06-09T02:28:57.063Z,69.70
2018-06-09T02:31:24.491Z,70.00
2018-06-09T02:33:51.930Z,69.90
2018-06-09T02:36:19.391Z,69.90
2018-06-09T02:38:46.862Z,70.40
2018-06-09T02:41:14.302Z,70.90
2018-06-09T02:43:41.787Z,70.60
2018-06-09T02:46:09.244Z,71.40
2018-06-09T02:48:36.672Z,72.00
2018-06-09T02:51:04.159Z,71.90
2018-06-09T02:53:31.654Z,71.80
2018-06-09T02:55:59.125Z,71.70
2018-06-09T02:58:26.546Z,72.40
2018-06-09T03:00:54.018Z,72.70
2018-06-09T03:03:21.482Z,73.30
2018-06-09T03:05:48.988Z,73.40
2018-06-09T03:08:16.444Z,74.00
2018-06-09T03:10:43.923Z,75.00
2018-06-09T03:13:11.390Z,75.00
2018-06-09T03:15:38.881Z,75.60
2018-06-09T03:18:06.371Z,75.80
2018-06-09T03:20:33.806Z,76.40
2018-06-09T03:23:01.278Z,76.40
2018-06-09T03:25:28.713Z,75.90
2018-06-09T03:27:56.193Z,76.00
2018-06-09T03:30:23.633Z,75.50
2018-06-09T03:32:51.106Z,76.20
2018-06-09T03:35:18.539Z,76.60
2018-06-09T03:37:46.021Z,76.30
2018-06-09T03:40:13.446Z,77.10
2018-06-09T03:42:40.927Z,77.50
2018-06-09T03:45:08.346Z,79.00
2018-06-09T03:47:35.836Z,78.60
2018-06-09T03:50:03.271Z,79.00
2018-06-09T03:52:30.710Z,79.50
2018-06-09T03:54:58.190Z,79.70
2018-06-09T03:57:25.642Z,80.10
2018-06-09T03:59:53.106Z,80.60
2018-06-09T04:02:20.710Z,81.30
2018-06-09T04:04:48.181Z,81.30
2018-06-09T04:07:15.634Z,82.00
2018-06-09T04:09:43.102Z,82.00
2018-06-09T04:12:10.523Z,81.40
2018-06-09T04:14:37.994Z,81.70
2018-06-09T04:17:05.415Z,82.00
2018-06-09T04:19:32.907Z,82.60
2018-06-09T04:22:00.322Z,83.20
2018-06-09T04:24:27.771Z,83.00
2018-06-09T04:26:55.253Z,84.10
2018-06-09T04:29:22.703Z,84.50
2018-06-09T04:31:50.162Z,84.20
2018-06-09T04:34:17.581Z,84.90
2018-06-09T04:36:45.107Z,84.70
2018-06-09T04:39:12.531Z,84.80
2018-06-09T04:41:40.234Z,85.00
2018-06-09T04:44:07.658Z,86.10
2018-06-09T04:46:35.443Z,86.20
2018-06-09T04:49:02.866Z,86.50
2018-06-09T04:51:30.702Z,86.70
2018-06-09T04:53:58.143Z,87.00
2018-06-09T04:56:25.610Z,87.40
2018-06-09T04:58:53.082Z,88.50
2018-06-09T05:01:20.503Z,88.60
2018-06-09T05:03:47.971Z,88.20
2018-06-09T05:06:15.514Z,88.50
2018-06-09T05:11:10.443Z,86.00
2018-06-09T05:13:37.862Z,85.60
2018-06-09T05:16:05.335Z,85.10
2018-06-09T05:18:32.771Z,85.20
2018-06-09T05:21:00.247Z,84.90
2018-06-09T05:23:27.678Z,85.80
2018-06-09T05:25:55.143Z,85.60
2018-06-09T05:28:22.562Z,85.50
2018-06-09T05:30:50.022Z,85.00
2018-06-09T05:33:17.479Z,84.30
2018-06-09T05:35:44.946Z,84.40
2018-06-09T05:38:12.642Z,84.50
2018-06-09T05:40:40.294Z,84.30
2018-06-09T05:43:07.751Z,84.20
2018-06-09T05:45:35.174Z,84.70
2018-06-09T05:48:02.623Z,84.40
2018-06-09T05:50:30.052Z,84.60
2018-06-09T05:55:24.926Z,83.30
2018-06-09T05:57:52.397Z,82.90
2018-06-09T06:00:19.831Z,82.60
2018-06-09T06:02:47.388Z,82.80
2018-06-09T06:05:15.150Z,81.70
2018-06-09T06:07:42.571Z,82.80
2018-06-09T06:10:10.036Z,82.30
2018-06-09T06:12:37.466Z,80.50
2018-06-09T06:15:04.995Z,78.20
2018-06-09T06:17:32.413Z,77.90
2018-06-09T06:19:59.859Z,77.20
2018-06-09T06:24:54.719Z,74.70
2018-06-09T06:27:22.151Z,75.30
2018-06-09T06:29:49.589Z,74.80
2018-06-09T06:32:17.509Z,73.70
2018-06-09T06:34:44.926Z,73.40
2018-06-09T06:37:12.342Z,71.90
2018-06-09T06:39:39.794Z,71.00
2018-06-09T06:42:07.218Z,69.20
2018-06-09T06:44:34.691Z,67.90
2018-06-09T06:47:02.126Z,66.70
2018-06-09T06:49:29.591Z,65.10
2018-06-09T06:51:57.022Z,65.30
2018-06-09T06:54:24.470Z,63.00
2018-06-09T06:56:51.899Z,62.50
2018-06-09T06:59:19.364Z,61.30
2018-06-09T07:01:46.854Z,61.30
2018-06-09T07:04:14.411Z,61.10
2018-06-09T07:06:41.855Z,59.70
2018-06-09T07:09:09.322Z,59.60
2018-06-09T07:14:04.223Z,58.00
2018-06-09T07:16:31.757Z,57.70
2018-06-09T07:18:59.458Z,57.40
2018-06-09T07:21:26.886Z,55.70
2018-06-09T07:23:54.346Z,55.50
2018-06-09T07:26:21.794Z,54.20
2018-06-09T07:28:49.593Z,53.70
2018-06-09T07:31:17.034Z,52.70
2018-06-09T07:33:44.495Z,52.10
2018-06-09T07:36:12.424Z,52.60
2018-06-09T07:38:39.913Z,51.60
2018-06-09T07:41:07.591Z,51.00
2018-06-09T07:43:35.057Z,51.10
2018-06-09T07:46:02.493Z,51.10
2018-06-09T07:48:29.975Z,51.20
2018-06-09T07:50:57.398Z,51.10
2018-06-09T07:53:24.825Z,50.90
2018-06-09T07:55:52.374Z,50.30
2018-06-09T07:58:19.874Z,49.10
2018-06-09T08:00:47.365Z,48.90
2018-06-09T08:03:14.814Z,49.30
2018-06-09T08:05:42.271Z,48.60
2018-06-09T08:08:09.903Z,48.50
2018-06-09T08:10:37.335Z,48.60
2018-06-09T08:13:04.779Z,48.40
2018-06-09T08:15:32.261Z,49.90
2018-06-09T08:17:59.722Z,51.10
2018-06-09T08:20:27.194Z,50.90
2018-06-09T08:22:54.638Z,49.80
2018-06-09T08:25:22.094Z,49.00
2018-06-09T08:27:49.542Z,47.90
2018-06-09T08:30:17.023Z,46.90
2018-06-09T08:32:44.762Z,47.20
2018-06-09T08:35:12.234Z,45.80
2018-06-09T08:37:40.111Z,45.30
2018-06-09T08:40:07.582Z,45.80
2018-06-09T08:42:35.024Z,45.80
2018-06-09T08:47:30.265Z,44.40
2018-06-09T08:49:57.731Z,43.60
2018-06-09T08:52:25.214Z,45.40
2018-06-09T08:54:52.661Z,44.60
2018-06-09T08:59:47.561Z,45.20
2018-06-09T09:02:15.068Z,45.10
2018-06-09T09:04:42.502Z,45.00
2018-06-09T09:07:09.972Z,44.40
2018-06-09T09:09:37.562Z,44.30
2018-06-09T09:12:05.859Z,44.60
2018-06-09T09:14:33.358Z,44.90
2018-06-09T09:17:00.855Z,44.00
2018-06-09T09:19:28.339Z,44.50
2018-06-09T09:21:55.814Z,44.80
2018-06-09T09:24:23.550Z,44.60
2018-06-09T09:26:51.063Z,43.70
2018-06-09T09:29:20.170Z,43.90
2018-06-09T09:31:48.897Z,43.50
2018-06-09T09:34:16.383Z,43.30
2018-06-09T09:36:43.823Z,42.00
2018-06-09T09:39:11.275Z,44.30
2018-06-09T09:41:38.709Z,43.10
2018-06-09T09:44:06.190Z,44.00
2018-06-09T09:46:33.614Z,43.20
2018-06-09T09:49:01.096Z,42.20
2018-06-09T09:51:28.522Z,41.60
2018-06-09T09:53:56.170Z,42.50
2018-06-09T09:56:23.614Z,41.60
2018-06-09T09:58:51.410Z,41.50
2018-06-09T10:01:18.866Z,42.10
2018-06-09T10:03:46.314Z,42.00
2018-06-09T10:06:14.032Z,42.70
2018-06-09T10:08:41.500Z,42.60
2018-06-09T10:11:08.922Z,42.20
2018-06-09T10:13:36.370Z,41.90
2018-06-09T10:16:03.906Z,41.60
2018-06-09T10:18:31.394Z,41.20
2018-06-09T10:20:58.830Z,40.40
2018-06-09T10:23:26.275Z,42.00
2018-06-09T10:25:53.689Z,41.40
2018-06-09T10:28:21.168Z,40.30
2018-06-09T10:30:48.599Z,40.80
2018-06-09T10:33:16.033Z,40.20
2018-06-09T10:35:43.471Z,39.90
2018-06-09T10:38:10.982Z,38.60
2018-06-09T10:43:05.883Z,38.90
2018-06-09T10:45:33.335Z,40.20
2018-06-09T10:50:28.299Z,37.10
2018-06-09T10:52:55.720Z,38.30
2018-06-09T10:55:23.178Z,38.80
2018-06-09T10:57:50.644Z,38.60
2018-06-09T11:00:18.090Z,38.00
2018-06-09T11:02:45.506Z,37.30
2018-06-09T11:05:12.957Z,38.20
2018-06-09T11:07:40.384Z,37.50
2018-06-09T11:10:07.942Z,36.90
2018-06-09T11:12:35.327Z,37.30
2018-06-09T11:15:02.774Z,37.40
2018-06-09T11:17:30.196Z,35.70
2018-06-09T11:19:57.654Z,35.70
2018-06-09T11:22:25.082Z,35.90
2018-06-09T11:24:52.526Z,36.50
2018-06-09T11:27:19.953Z,36.70
2018-06-09T11:29:47.405Z,35.80
2018-06-09T11:32:14.857Z,36.60
2018-06-09T11:34:42.322Z,36.60
2018-06-09T11:39:37.186Z,35.20
2018-06-09T11:42:05.985Z,35.90
2018-06-09T11:44:33.447Z,35.90
2018-06-09T11:47:01.283Z,36.00
2018-06-09T11:49:28.706Z,35.10
2018-06-09T11:51:56.166Z,34.90
2018-06-09T11:54:23.593Z,35.20
2018-06-09T11:56:51.101Z,35.40
2018-06-09T11:59:18.570Z,35.20
2018-06-09T12:01:46.091Z,36.00
2018-06-09T12:04:13.498Z,35.00
2018-06-09T12:06:41.214Z,35.60
2018-06-09T12:09:08.686Z,35.10
2018-06-09T12:11:36.711Z,35.80
2018-06-09T12:14:04.178Z,37.20
2018-06-09T12:16:31.673Z,39.10
2018-06-09T12:18:59.091Z,39.80
2018-06-09T12:21:26.591Z,41.30
2018-06-09T12:23:54.043Z,39.80
2018-06-09T12:26:21.508Z,38.20
2018-06-09T12:28:48.954Z,35.90
2018-06-09T12:31:16.397Z,37.30
2018-06-09T12:33:43.824Z,35.80
2018-06-09T12:36:11.276Z,35.40
2018-06-09T12:38:38.710Z,36.90
2018-06-09T12:41:06.178Z,37.60
2018-06-09T12:43:34.143Z,37.90
2018-06-09T12:46:01.585Z,37.60
2018-06-09T12:48:29.172Z,36.80
2018-06-09T12:50:56.534Z,38.20
2018-06-09T12:53:24.002Z,37.70
2018-06-09T12:58:18.927Z,36.40
2018-06-09T13:00:46.363Z,37.10
2018-06-09T13:03:13.822Z,36.20
2018-06-09T13:05:41.255Z,35.90
2018-06-09T13:08:08.709Z,36.40
2018-06-09T13:10:36.182Z,36.90
2018-06-09T13:13:03.633Z,37.20
2018-06-09T13:15:31.075Z,36.60
2018-06-09T13:17:58.538Z,36.60
2018-06-09T13:20:25.989Z,38.10
2018-06-09T13:22:53.761Z,40.00
2018-06-09T13:25:21.191Z,40.50
2018-06-09T13:27:48.647Z,39.90
2018-06-09T13:30:16.181Z,38.10
2018-06-09T13:32:43.596Z,38.30
2018-06-09T13:35:11.022Z,38.90
2018-06-09T13:37:38.490Z,40.20
2018-06-09T13:40:06.118Z,42.00
2018-06-09T13:42:33.639Z,43.70
2018-06-09T13:45:01.075Z,44.50
2018-06-09T13:47:28.818Z,44.90
2018-06-09T13:49:56.274Z,45.10
2018-06-09T13:52:24.019Z,43.50
2018-06-09T13:54:51.483Z,43.80
2018-06-09T13:57:18.934Z,44.80
2018-06-09T13:59:46.496Z,44.40
2018-06-09T14:02:14.150Z,44.50
2018-06-09T14:04:41.598Z,44.90
2018-06-09T14:07:09.039Z,44.20
2018-06-09T14:09:36.537Z,44.60
2018-06-09T14:12:03.989Z,45.10
2018-06-09T14:16:58.854Z,44.50
2018-06-09T14:19:26.310Z,45.10
2018-06-09T14:21:53.750Z,45.60
2018-06-09T14:24:21.241Z,44.90
2018-06-09T14:26:48.693Z,45.40
2018-06-09T14:29:16.159Z,45.00
2018-06-09T14:31:43.614Z,43.40
2018-06-09T14:34:11.361Z,41.90
2018-06-09T14:36:38.798Z,40.40
2018-06-09T14:39:06.999Z,40.70
2018-06-09T14:41:34.466Z,39.30
2018-06-09T14:44:01.927Z,38.90
2018-06-09T14:46:29.366Z,38.30
2018-06-09T14:48:57.206Z,38.90
2018-06-09T14:51:24.934Z,39.10
2018-06-09T14:53:52.454Z,40.00
2018-06-09T14:56:19.856Z,41.10
2018-06-09T14:58:47.341Z,41.20
2018-06-09T15:01:14.783Z,40.30
2018-06-09T15:03:42.231Z,41.70
2018-06-09T15:06:09.707Z,40.80
2018-06-09T15:08:37.449Z,40.00
2018-06-09T15:11:04.942Z,40.20
2018-06-09T15:13:32.659Z,40.80
2018-06-09T15:16:00.139Z,41.10
2018-06-09T15:18:27.557Z,41.40
2018-06-09T15:20:55.047Z,40.60
2018-06-09T15:23:22.474Z,41.30
2018-06-09T15:25:49.935Z,40.10
2018-06-09T15:28:17.414Z,41.40
2018-06-09T15:30:45.101Z,41.20
2018-06-09T15:33:12.542Z,41.70
2018-06-09T15:35:40.102Z,41.50
2018-06-09T15:38:07.521Z,42.50
2018-06-09T15:40:34.967Z,42.50
2018-06-09T15:43:02.415Z,42.30
2018-06-09T15:45:29.872Z,42.10
2018-06-09T15:47:57.650Z,42.30
2018-06-09T15:50:25.097Z,42.00
2018-06-09T15:52:52.538Z,40.60
2018-06-09T15:55:20.012Z,42.30
2018-06-09T15:57:47.462Z,44.60
2018-06-09T16:00:14.918Z,45.20
2018-06-09T16:02:45.531Z,45.70
2018-06-09T16:05:14.258Z,45.10
2018-06-09T16:07:45.556Z,45.00
2018-06-09T16:10:13.073Z,44.90
2018-06-09T16:12:40.546Z,45.60
2018-06-09T16:15:07.995Z,44.20
2018-06-09T16:17:35.491Z,46.10
2018-06-09T16:20:03.238Z,46.50
2018-06-09T16:22:30.719Z,47.00
2018-06-09T16:24:58.191Z,47.00
2018-06-09T16:27:25.702Z,47.60
2018-06-09T16:29:53.138Z,47.20
2018-06-09T16:32:20.716Z,47.80
2018-06-09T16:34:48.164Z,47.50
2018-06-09T16:37:15.650Z,47.30
2018-06-09T16:39:43.193Z,47.70
2018-06-09T16:42:10.672Z,48.10
2018-06-09T16:44:38.126Z,48.00
2018-06-09T16:47:05.599Z,47.90
2018-06-09T16:49:33.058Z,48.30
2018-06-09T16:52:00.536Z,48.80
2018-06-09T16:54:27.986Z,48.60
2018-06-09T16:56:55.745Z,49.20
2018-06-09T16:59:23.176Z,49.10
2018-06-09T17:01:50.967Z,49.40
2018-06-09T17:04:18.430Z,48.90
2018-06-09T17:06:45.934Z,49.20
2018-06-09T17:09:13.403Z,50.50
2018-06-09T17:11:40.899Z,49.90
2018-06-09T17:14:08.358Z,50.10
2018-06-09T17:16:35.859Z,50.00
2018-06-09T17:19:03.335Z,50.50
2018-06-09T17:21:31.118Z,51.00
2018-06-09T17:23:58.571Z,50.90
2018-06-09T17:26:27.360Z,51.80
2018-06-09T17:28:54.922Z,51.20
2018-06-09T17:31:22.378Z,51.60
2018-06-09T17:33:49.851Z,51.50
2018-06-09T17:38:44.729Z,52.60
2018-06-09T17:41:12.192Z,52.70
2018-06-09T17:43:39.668Z,52.40
2018-06-09T17:46:07.107Z,51.30
2018-06-09T17:48:34.563Z,52.50
2018-06-09T17:51:02.101Z,51.90
2018-06-09T17:53:29.507Z,53.00
2018-06-09T17:55:56.946Z,53.60
2018-06-09T17:58:24.430Z,54.80
2018-06-09T18:00:51.847Z,55.20
2018-06-09T18:03:19.291Z,56.10
2018-06-09T18:05:46.870Z,56.90
2018-06-09T18:08:14.314Z,57.30
2018-06-09T18:10:41.763Z,57.80
2018-06-09T18:13:09.205Z,58.50
2018-06-09T18:15:36.655Z,59.10
2018-06-09T18:18:04.123Z,59.80
2018-06-09T18:20:31.540Z,59.80
2018-06-09T18:22:59.092Z,60.20
2018-06-09T18:25:26.504Z,60.60
2018-06-09T18:27:53.930Z,60.80
2018-06-09T18:30:21.395Z,61.10
2018-06-09T18:32:48.818Z,61.70
2018-06-09T18:35:16.274Z,63.20
2018-06-09T18:37:43.716Z,63.10
2018-06-09T18:40:11.166Z,64.40
2018-06-09T18:42:38.619Z,64.50
2018-06-09T18:45:06.059Z,64.50
2018-06-09T18:47:33.494Z,64.80
2018-06-09T18:50:00.934Z,64.90
2018-06-09T18:52:28.376Z,65.00
2018-06-09T18:54:55.842Z,65.20
2018-06-09T18:57:23.262Z,65.50
2018-06-09T18:59:50.719Z,66.40
2018-06-09T19:02:18.160Z,66.00
2018-06-09T19:04:45.625Z,66.50
2018-06-09T19:07:13.070Z,65.80
2018-06-09T19:09:45.479Z,65.70
2018-06-09T19:12:13.246Z,65.80
2018-06-09T19:14:40.701Z,65.00
2018-06-09T19:17:08.134Z,65.50
2018-06-09T19:19:35.598Z,64.90
2018-06-09T19:22:03.103Z,64.80
2018-06-09T19:24:30.514Z,65.00
2018-06-09T19:26:57.959Z,65.80
2018-06-09T19:29:25.415Z,65.40
2018-06-09T19:31:52.850Z,66.00
2018-06-09T19:34:20.307Z,65.80
2018-06-09T19:36:48.344Z,65.30
2018-06-09T19:39:15.788Z,65.00
2018-06-09T19:41:43.251Z,64.50
2018-06-09T19:44:10.686Z,65.70
2018-06-09T19:46:38.133Z,65.50
2018-06-09T19:49:05.555Z,65.60
2018-06-09T19:51:33.014Z,65.40
2018-06-09T19:54:00.463Z,66.00
2018-06-09T19:56:27.914Z,66.90
2018-06-09T19:58:55.353Z,67.90
2018-06-09T20:01:22.810Z,69.50
2018-06-09T20:03:50.248Z,70.90
2018-06-09T20:06:17.761Z,71.70
2018-06-09T20:08:45.222Z,73.40
2018-06-09T20:11:12.683Z,74.30
2018-06-09T20:13:40.143Z,75.60
2018-06-09T20:16:07.683Z,77.70
2018-06-09T20:18:35.110Z,79.00
2018-06-09T20:21:02.567Z,80.50
2018-06-09T20:23:29.999Z,80.60
2018-06-09T20:25:57.551Z,81.80
2018-06-09T20:28:24.986Z,84.20
2018-06-09T20:30:52.509Z,87.40
2018-06-09T20:33:19.958Z,90.30
2018-06-09T20:35:47.427Z,91.60
2018-06-09T20:38:14.874Z,93.40
2018-06-09T20:40:42.590Z,95.00
2018-06-09T20:43:10.668Z,96.90
2018-06-09T20:45:38.118Z,98.90
2018-06-09T20:48:05.574Z,99.90
2018-06-09T20:50:33.022Z,99.90
2018-06-09T20:53:00.503Z,99.90
2018-06-09T20:55:27.986Z,99.90
2018-06-09T20:57:55.450Z,99.90
2018-06-09T21:00:22.893Z,99.90
2018-06-09T21:02:50.357Z,99.90
2018-06-09T21:05:17.802Z,99.90
2018-06-09T21:07:45.275Z,99.90
2018-06-09T21:10:12.746Z,99.90
2018-06-09T21:12:40.218Z,99.90
2018-06-09T21:15:07.682Z,99.90
2018-06-09T21:17:35.155Z,99.90
2018-06-09T21:20:02.652Z,99.90
2018-06-09T21:22:29.591Z,99.90
2018-06-09T21:24:56.511Z,99.90
2018-06-09T21:27:28.609Z,99.90
2018-06-09T21:29:57.030Z,99.90
2018-06-09T21:32:27.050Z,99.90
2018-06-09T21:35:06.226Z,99.90
2018-06-09T21:37:39.766Z,99.90
2018-06-09T21:40:13.100Z,99.90
2018-06-09T21:42:48.699Z,99.90
2018-06-09T21:45:21.754Z,99.90
2018-06-09T21:47:49.233Z,99.90
2018-06-09T21:50:16.662Z,99.90
2018-06-09T21:52:44.145Z,99.90
2018-06-09T21:55:11.665Z,99.90
2018-06-09T21:57:39.443Z,99.90
2018-06-09T22:00:07.429Z,99.90
2018-06-09T22:02:35.051Z,99.90
2018-06-09T22:05:02.510Z,99.90
2018-06-09T22:07:30.332Z,99.90
2018-06-09T22:09:57.818Z,99.90
2018-06-09T22:12:25.279Z,99.90
2018-06-09T22:14:52.798Z,99.90
2018-06-09T22:17:20.570Z,99.90
2018-06-09T22:19:48.027Z,99.90
2018-06-09T22:22:15.458Z,99.90
2018-06-09T22:24:42.906Z,99.90
2018-06-09T22:27:10.651Z,99.90
2018-06-09T22:29:38.110Z,99.90
2018-06-09T22:32:05.557Z,99.90
2018-06-09T22:34:32.999Z,99.90
2018-06-09T22:37:00.463Z,99.90
2018-06-09T22:39:27.924Z,99.90
2018-06-09T22:41:55.383Z,99.90
2018-06-09T22:44:23.080Z,99.90
2018-06-09T22:46:50.542Z,99.90
2018-06-09T22:49:18.040Z,99.90
2018-06-09T22:51:45.509Z,99.90
2018-06-09T22:54:12.985Z,99.90
2018-06-09T22:56:40.433Z,99.90
2018-06-09T22:59:07.909Z,99.90
2018-06-09T23:01:35.363Z,99.90
2018-06-09T23:04:02.846Z,99.90
2018-06-09T23:06:30.367Z,99.90
2018-06-09T23:08:57.850Z,99.90
2018-06-09T23:13:52.779Z,99.90
2018-06-09T23:16:20.230Z,99.90
2018-06-09T23:18:47.682Z,99.90
2018-06-09T23:21:15.149Z,99.90
2018-06-09T23:23:42.894Z,99.90
2018-06-09T23:26:10.339Z,99.90
2018-06-09T23:28:37.766Z,99.90
2018-06-09T23:31:05.227Z,99.90
2018-06-09T23:33:32.667Z,99.90
2018-06-09T23:36:00.121Z,99.90
2018-06-09T23:38:27.559Z,99.90
2018-06-09T23:40:55.029Z,99.90
2018-06-09T23:43:22.756Z,99.90
2018-06-09T23:45:50.539Z,99.90
2018-06-09T23:48:18.281Z,99.90
2018-06-09T23:50:45.750Z,99.90
2018-06-09T23:53:13.183Z,99.90
2018-06-09T23:55:40.646Z,99.90
2018-06-09T23:58:08.075Z,99.90
